Vernonia, OR

7:28 AM PDT on September 20, 2014 (GMT -0700)
IOREGONV2 | Change Station
CLOSE
Current Station
Personal Weather Station
Location: Vernonia, OREGON
Elevation: 670 ft
Nearby Weather Stations

Elev 670 ft 45.86 °N, 123.17 °W | Updated 14 seconds ago

Partly Cloudy
Partly Cloudy
50.2 °F
Feels Like 50.2 °F
N
0.0
Wind Variable Wind from SSW
Gusts 0.0 mph

Today
High -- | Low -- °F
--% Chance of Precip.
Yesterday
High -- | Low -- °F
Precip. -- in
6:57 AM 7:14 PM
Waning Crescent, 12% visible
Pressure 30.00 in
Visibility 10.0 miles
Clouds Clear
Dew Point 50 °F
Humidity 98%
Rainfall 0.00 in
Snow Depth 0 in , 0 in , 0 in
UV 0 out of 12
Pollen 2.70 out of 12
Air Quality Not available.
Flu Activity Not available.
METAR KSPB 201353Z AUTO 34004KT 10SM CLR 16/13 A3000 RMK AO2 SLP159 T01560133

More Conditions Fewer Conditions

Pressure 30.00 in
Visibility 10.0 miles
Clouds Clear
Dew Point 50 °F
Humidity 98%
Rainfall 0.00 in
Snow Depth 0 in , 0 in , 0 in
UV 0 out of 12
Pollen 2.70 out of 12
Air Quality Not available.
Flu Activity Not available.
METAR KSPB 201353Z AUTO 34004KT 10SM CLR 16/13 A3000 RMK AO2 SLP159 T01560133

More Conditions Fewer Conditions

10-Day Weather Forecast

Almanac

Astronomy

Sep. 20, 2014 Rise Set
Actual Time 6:57 AM PDT 7:14 PM PDT
Civil Twilight 6:27 AM PDT 7:43 PM PDT
Nautical Twilight 5:52 AM PDT 8:18 PM PDT
Astronomical Twilight 5:16 AM PDT 8:54 PM PDT
Moon 3:33 AM PDT 5:27 PM PDT
Length of Visible Light 13h 16m
Length of Day
12h 16m
Tomorrow will be 3m 12s shorter.
Waning Crescent, 12% of the Moon is Illuminated
Today
Waning Crescent
Sep 24
New
Oct 1
First Quarter
Oct 8
Full
Oct 15
Last Quarter

Today's Extremes

State Highs State Lows

Community

WunderPhotos

Upload Photos

1,754,871 photos uploaded!

Nearby

Snow Depth

Station Depth Elevation
Blazed Alder 0 in 3650 ft
Bourne 0 in 5800 ft
Daly Lake 0 in 3600 ft
Tipton 0 in 5150 ft
New Crescent Lake 0 in 4800 ft

Earthquake Activity

City Distance Mag. Time & Date
Seabeck, Washington 117 miles 4.0 3:06 AM PDT
2014-09-17
Minimum magnitude displayed is 2.5.

Coastal Water Temperatures

Place Temperature
Astoria, OR 64.0 °F
Westport, WA 60.1 °F

Nearby Weather Stations